GT-0014 weather

Rancho Pal
Huehuetenango, Guatemala

Public forecast

Using degrees Celsius for public forecast. Weather courtesy of forecast.io.

Closest aviation weather report (METAR) to Rancho Pal

Closest report is Huehuetenango Airport, 37.7 nm (69.9 km) SSW. Retrieved 2020/06/04 23:00 UTC (37 minutes ago):

MGHT 042300Z 00000KT 9000 -DZ OVC015 19/16

Closest aviation forecast (TAF) to Rancho Pal

Closest forecast is La Aurora Airport, 85.4 nm (158.1 km) SSE. Retrieved 2020/06/04 18:30 UTC (5 hours ago):

TAF MGGT 041700Z 0418/0518 18012KT 8000 BKN014 BKN080 TX20/0420Z TN15/0512Z PROB40 0418/0518 6000 RADZ BKN010 OVC080 BECMG 0501/0503 VRB03KT BKN012 BECMG 0515/0517 BKN014